createdAt,value
2023-05-19T00:00:57.819Z,65.95
2023-05-19T00:01:58.746Z,65.47
2023-05-19T00:02:59.694Z,65.98
2023-05-19T00:04:00.164Z,66.28
2023-05-19T00:05:01.062Z,66.39
2023-05-19T00:06:01.958Z,65.84
2023-05-19T00:07:02.847Z,65.74
2023-05-19T00:08:03.737Z,65.98
2023-05-19T00:09:04.626Z,66.19
2023-05-19T00:10:05.491Z,66.49
2023-05-19T00:11:06.376Z,66.49
2023-05-19T00:12:07.286Z,66.93
2023-05-19T00:13:08.156Z,66.73
2023-05-19T00:14:09.015Z,67.32
2023-05-19T00:15:09.874Z,66.80
2023-05-19T00:16:10.805Z,66.28
2023-05-19T00:17:11.727Z,65.98
2023-05-19T00:18:12.611Z,66.60
2023-05-19T00:19:13.539Z,66.22
2023-05-19T00:20:14.446Z,66.31
2023-05-19T00:21:15.369Z,66.31
2023-05-19T00:22:16.460Z,66.42
2023-05-19T00:23:16.856Z,66.63
2023-05-19T00:24:17.830Z,66.63
2023-05-19T00:25:18.653Z,66.83
2023-05-19T00:26:19.548Z,66.63
2023-05-19T00:27:20.407Z,66.52
2023-05-19T00:28:21.296Z,67.03
2023-05-19T00:29:22.191Z,67.03
2023-05-19T00:30:23.042Z,66.83
2023-05-19T00:31:23.984Z,66.83
2023-05-19T00:32:24.920Z,66.63
2023-05-19T00:33:25.752Z,66.83
2023-05-19T00:34:26.629Z,66.73
2023-05-19T00:35:27.552Z,66.63
2023-05-19T00:36:28.431Z,66.42
2023-05-19T00:37:29.361Z,66.73
2023-05-19T00:38:31.215Z,66.70
2023-05-19T00:39:31.097Z,66.63
2023-05-19T00:40:32.437Z,66.52
2023-05-19T00:41:32.944Z,66.42
2023-05-19T00:42:33.808Z,66.42
2023-05-19T00:43:34.754Z,66.52
2023-05-19T00:44:35.618Z,66.60
2023-05-19T00:45:36.538Z,67.14
2023-05-19T00:46:37.410Z,67.14
2023-05-19T00:47:38.345Z,67.44
2023-05-19T00:48:39.200Z,67.55
2023-05-19T00:49:40.076Z,68.19
2023-05-19T00:50:40.956Z,67.89
2023-05-19T00:51:41.825Z,68.10
2023-05-19T00:52:42.693Z,68.10
2023-05-19T00:53:43.563Z,68.30
2023-05-19T00:54:44.950Z,68.71
2023-05-19T00:55:45.362Z,68.40
2023-05-19T00:56:46.224Z,67.68
2023-05-19T00:57:47.305Z,68.19
2023-05-19T00:58:47.654Z,68.30
2023-05-19T00:59:48.542Z,68.30
2023-05-19T01:00:49.467Z,68.71
2023-05-19T01:01:50.341Z,68.71
2023-05-19T01:02:51.251Z,69.02
2023-05-19T01:03:52.355Z,68.91
2023-05-19T01:04:52.726Z,68.81
2023-05-19T01:05:53.643Z,68.61
2023-05-19T01:06:54.509Z,68.91
2023-05-19T01:07:55.423Z,69.23
2023-05-19T01:08:56.308Z,69.02
2023-05-19T01:09:58.225Z,68.71
2023-05-19T01:10:58.168Z,68.61
2023-05-19T01:11:59.012Z,68.40
2023-05-19T01:12:59.874Z,68.51
2023-05-19T01:14:00.764Z,69.02
2023-05-19T01:15:01.634Z,69.15
2023-05-19T01:16:02.549Z,68.91
2023-05-19T01:17:03.437Z,69.15
2023-05-19T01:18:04.308Z,68.95
2023-05-19T01:19:05.221Z,69.26
2023-05-19T01:20:06.150Z,69.77
2023-05-19T01:21:07.024Z,69.56
2023-05-19T01:22:07.913Z,69.87
2023-05-19T01:23:08.855Z,70.08
2023-05-19T01:24:10.681Z,69.87
2023-05-19T01:25:10.584Z,70.21
2023-05-19T01:26:11.450Z,69.98
2023-05-19T01:27:12.344Z,70.32
2023-05-19T01:28:13.216Z,70.42
2023-05-19T01:29:14.153Z,70.73
2023-05-19T01:30:15.017Z,70.70
2023-05-19T01:31:15.861Z,70.49
2023-05-19T01:32:16.814Z,70.49
2023-05-19T01:33:17.651Z,70.79
2023-05-19T01:34:18.576Z,70.59
2023-05-19T01:35:19.433Z,71.14
2023-05-19T01:36:20.332Z,71.24
2023-05-19T01:37:21.185Z,70.79
2023-05-19T01:38:22.151Z,70.70
2023-05-19T01:39:23.019Z,70.83
2023-05-19T01:40:23.938Z,71.04
2023-05-19T01:41:27.052Z,71.24
2023-05-19T01:42:25.393Z,70.83
2023-05-19T01:43:26.387Z,70.52
2023-05-19T01:44:27.933Z,70.42
2023-05-19T01:45:27.826Z,70.18
2023-05-19T01:46:28.781Z,70.18
2023-05-19T01:47:29.689Z,70.18
2023-05-19T01:48:30.588Z,70.39
2023-05-19T01:49:31.468Z,70.59
2023-05-19T01:50:32.755Z,70.79
2023-05-19T01:51:32.839Z,70.79
2023-05-19T01:52:33.757Z,70.94
2023-05-19T01:53:34.639Z,70.94
2023-05-19T01:54:35.539Z,71.04
2023-05-19T01:55:36.391Z,70.94
2023-05-19T01:56:37.290Z,70.94
2023-05-19T01:57:38.137Z,71.14
2023-05-19T01:58:39.052Z,70.73
2023-05-19T01:59:39.968Z,71.24
2023-05-19T02:00:40.803Z,70.73
2023-05-19T02:01:41.741Z,70.83
2023-05-19T02:02:42.589Z,70.94
2023-05-19T02:03:43.458Z,70.94
2023-05-19T02:04:44.533Z,70.73
2023-05-19T02:05:44.976Z,70.83
2023-05-19T02:06:45.827Z,70.52
2023-05-19T02:07:46.740Z,70.52
2023-05-19T02:08:47.621Z,70.62
2023-05-19T02:09:48.451Z,70.21
2023-05-19T02:10:49.368Z,70.32
2023-05-19T02:11:50.266Z,70.01
2023-05-19T02:12:51.105Z,69.70
2023-05-19T02:13:51.976Z,69.80
2023-05-19T02:14:52.865Z,69.67
2023-05-19T02:15:53.768Z,69.46
2023-05-19T02:16:54.670Z,69.05
2023-05-19T02:17:55.651Z,68.95
2023-05-19T02:18:56.114Z,68.95
2023-05-19T02:19:56.942Z,68.95
2023-05-19T02:20:57.859Z,68.64
2023-05-19T02:21:58.707Z,68.64
2023-05-19T02:22:59.561Z,68.74
2023-05-19T02:24:00.466Z,69.15
2023-05-19T02:25:01.411Z,69.15
2023-05-19T02:26:02.297Z,69.36
2023-05-19T02:27:03.320Z,69.36
2023-05-19T02:28:03.685Z,69.67
2023-05-19T02:29:04.544Z,69.26
2023-05-19T02:30:05.454Z,69.36
2023-05-19T02:31:06.319Z,68.74
2023-05-19T02:32:07.261Z,68.74
2023-05-19T02:33:08.206Z,68.43
2023-05-19T02:34:09.992Z,68.33
2023-05-19T02:35:09.903Z,68.19
2023-05-19T02:36:10.985Z,68.74
2023-05-19T02:37:11.382Z,68.13
2023-05-19T02:38:12.255Z,68.23
2023-05-19T02:39:13.110Z,68.54
2023-05-19T02:40:13.991Z,67.92
2023-05-19T02:41:14.888Z,67.71
2023-05-19T02:42:15.746Z,67.61
2023-05-19T02:43:16.628Z,67.92
2023-05-19T02:44:17.563Z,67.38
2023-05-19T02:45:18.510Z,67.38
2023-05-19T02:46:19.415Z,67.27
2023-05-19T02:47:20.302Z,67.17
2023-05-19T02:48:21.158Z,66.96
2023-05-19T02:49:22.050Z,67.07
2023-05-19T02:50:22.948Z,66.86
2023-05-19T02:51:23.792Z,66.66
2023-05-19T02:52:24.692Z,66.76
2023-05-19T02:53:25.569Z,66.76
2023-05-19T02:54:26.450Z,67.07
2023-05-19T02:55:27.318Z,67.48
2023-05-19T02:56:28.206Z,67.48
2023-05-19T02:57:29.080Z,67.27
2023-05-19T02:58:29.988Z,67.10
2023-05-19T02:59:30.874Z,67.51
2023-05-19T03:00:31.942Z,67.61
2023-05-19T03:01:32.573Z,67.10
2023-05-19T03:02:33.548Z,67.92
2023-05-19T03:03:33.991Z,67.30
2023-05-19T03:04:34.902Z,67.58
2023-05-19T03:05:35.791Z,67.58
2023-05-19T03:06:36.704Z,67.89
2023-05-19T03:07:37.549Z,67.30
2023-05-19T03:08:40.138Z,67.71
2023-05-19T03:09:39.045Z,68.23
2023-05-19T03:10:39.965Z,67.41
2023-05-19T03:11:40.837Z,68.23
2023-05-19T03:12:41.720Z,68.64
2023-05-19T03:13:42.632Z,68.13
2023-05-19T03:14:43.496Z,67.82
2023-05-19T03:15:44.392Z,68.02
2023-05-19T03:16:45.594Z,67.61
2023-05-19T03:17:46.224Z,68.02
2023-05-19T03:18:47.171Z,67.92
2023-05-19T03:19:48.023Z,68.02
2023-05-19T03:20:48.885Z,67.92
2023-05-19T03:21:49.793Z,67.82
2023-05-19T03:22:50.678Z,67.51
2023-05-19T03:23:51.566Z,67.41
2023-05-19T03:24:52.426Z,67.61
2023-05-19T03:25:53.303Z,67.30
2023-05-19T03:26:54.186Z,67.30
2023-05-19T03:27:55.077Z,67.10
2023-05-19T03:28:55.943Z,67.07
2023-05-19T03:29:56.855Z,66.86
2023-05-19T03:30:57.443Z,65.94
2023-05-19T03:31:58.314Z,66.45
2023-05-19T03:32:59.208Z,66.14
2023-05-19T03:34:00.052Z,66.45
2023-05-19T03:35:00.918Z,65.94
2023-05-19T03:36:01.808Z,65.19
2023-05-19T03:37:02.688Z,65.09
2023-05-19T03:38:03.586Z,65.50
2023-05-19T03:39:04.451Z,65.19
2023-05-19T03:40:05.329Z,65.09
2023-05-19T03:41:06.229Z,64.88
2023-05-19T03:42:07.098Z,64.85
2023-05-19T03:43:08.005Z,65.29
2023-05-19T03:44:08.890Z,65.29
2023-05-19T03:45:09.780Z,64.47
2023-05-19T03:46:10.704Z,64.47
2023-05-19T03:47:11.598Z,64.75
2023-05-19T03:48:12.515Z,64.23
2023-05-19T03:49:13.410Z,64.23
2023-05-19T03:50:14.298Z,64.75
2023-05-19T03:51:15.258Z,64.85
2023-05-19T03:52:16.096Z,64.34
2023-05-19T03:53:16.965Z,64.44
2023-05-19T03:54:17.862Z,64.54
2023-05-19T03:55:18.785Z,64.85
2023-05-19T03:56:19.643Z,64.54
2023-05-19T03:57:20.552Z,64.23
2023-05-19T03:58:21.386Z,64.54
2023-05-19T03:59:22.276Z,65.06
2023-05-19T04:00:23.177Z,64.64
2023-05-19T04:01:24.103Z,64.44
2023-05-19T04:02:25.124Z,64.85
2023-05-19T04:03:25.656Z,64.92
2023-05-19T04:04:26.176Z,64.92
2023-05-19T04:05:27.051Z,64.92
2023-05-19T04:06:27.909Z,64.92
2023-05-19T04:07:28.769Z,64.92
2023-05-19T04:08:29.653Z,65.23
2023-05-19T04:09:30.508Z,64.72
2023-05-19T04:10:31.613Z,65.33
2023-05-19T04:11:32.106Z,64.82
2023-05-19T04:12:33.049Z,65.03
2023-05-19T04:13:33.900Z,64.48
2023-05-19T04:14:34.780Z,64.48
2023-05-19T04:15:35.752Z,64.48
2023-05-19T04:16:36.609Z,64.59
2023-05-19T04:17:37.495Z,64.38
2023-05-19T04:18:38.415Z,64.17
2023-05-19T04:19:39.290Z,64.28
2023-05-19T04:20:40.208Z,64.45
2023-05-19T04:21:41.078Z,63.94
2023-05-19T04:22:41.954Z,63.84
2023-05-19T04:23:42.837Z,63.73
2023-05-19T04:24:43.707Z,64.01
2023-05-19T04:25:44.607Z,64.01
2023-05-19T04:26:45.466Z,63.81
2023-05-19T04:27:46.338Z,64.12
2023-05-19T04:28:47.200Z,63.70
2023-05-19T04:29:48.078Z,63.70
2023-05-19T04:30:48.993Z,63.50
2023-05-19T04:31:49.893Z,63.60
2023-05-19T04:32:50.859Z,63.70
2023-05-19T04:33:51.288Z,63.60
2023-05-19T04:34:52.158Z,63.60
2023-05-19T04:35:53.017Z,63.40
2023-05-19T04:36:53.944Z,63.81
2023-05-19T04:37:54.825Z,63.26
2023-05-19T04:38:55.674Z,62.85
2023-05-19T04:39:56.573Z,63.47
2023-05-19T04:40:57.435Z,62.76
2023-05-19T04:41:58.321Z,62.65
2023-05-19T04:42:59.237Z,61.91
2023-05-19T04:44:00.100Z,62.11
2023-05-19T04:45:00.968Z,62.01
2023-05-19T04:46:01.874Z,60.68
2023-05-19T04:47:03.106Z,61.16
2023-05-19T04:48:03.534Z,61.67
2023-05-19T04:49:04.431Z,61.36
2023-05-19T04:50:05.354Z,61.44
2023-05-19T04:51:06.207Z,61.54
2023-05-19T04:52:07.086Z,61.34
2023-05-19T04:53:07.959Z,60.52
2023-05-19T04:54:08.824Z,60.42
2023-05-19T04:55:09.701Z,59.85
2023-05-19T04:56:10.573Z,58.67
2023-05-19T04:57:11.492Z,58.03
2023-05-19T04:58:12.382Z,57.47
2023-05-19T04:59:13.261Z,55.53
2023-05-19T05:00:14.294Z,53.98
2023-05-19T05:01:14.707Z,54.03
2023-05-19T05:02:15.700Z,53.83
2023-05-19T05:03:16.089Z,53.42
2023-05-19T05:04:16.936Z,51.64
2023-05-19T05:05:17.838Z,52.12
2023-05-19T05:06:18.698Z,51.57
2023-05-19T05:07:19.610Z,49.92
2023-05-19T05:08:20.454Z,48.60
2023-05-19T05:09:21.363Z,47.99
2023-05-19T05:10:22.231Z,50.25
2023-05-19T05:11:23.157Z,48.93
2023-05-19T05:12:24.001Z,48.72
2023-05-19T05:13:24.856Z,50.09
2023-05-19T05:14:25.722Z,50.68
2023-05-19T05:15:26.602Z,50.35
2023-05-19T05:16:27.605Z,50.12
2023-05-19T05:17:28.244Z,49.87
2023-05-19T05:18:28.663Z,49.04
2023-05-19T05:19:29.622Z,47.50
2023-05-19T05:20:30.216Z,47.88
2023-05-19T05:21:30.640Z,47.63
2023-05-19T05:22:31.517Z,45.61
2023-05-19T05:23:32.413Z,46.72
2023-05-19T05:24:33.264Z,45.69
2023-05-19T05:25:34.275Z,44.86
2023-05-19T05:26:34.733Z,45.67
2023-05-19T05:27:35.596Z,44.25
2023-05-19T05:28:36.484Z,44.96
2023-05-19T05:29:37.376Z,44.07
2023-05-19T05:30:38.251Z,44.15
2023-05-19T05:31:39.265Z,44.96
2023-05-19T05:32:39.698Z,43.95
2023-05-19T05:33:40.676Z,44.84
2023-05-19T05:34:41.592Z,43.34
2023-05-19T05:35:42.531Z,45.16
2023-05-19T05:36:43.430Z,44.35
2023-05-19T05:37:44.336Z,44.88
2023-05-19T05:38:45.210Z,46.37
2023-05-19T05:39:46.100Z,46.36
2023-05-19T05:40:47.061Z,44.54
2023-05-19T05:41:47.945Z,44.54
2023-05-19T05:42:48.829Z,44.07
2023-05-19T05:43:49.738Z,44.96
2023-05-19T05:44:50.622Z,43.65
2023-05-19T05:45:51.511Z,44.15
2023-05-19T05:46:52.416Z,44.74
2023-05-19T05:47:53.373Z,43.63
2023-05-19T05:48:54.240Z,44.43
2023-05-19T05:49:55.122Z,43.91
2023-05-19T05:50:55.977Z,44.90
2023-05-19T05:52:05.887Z,42.84
2023-05-19T05:52:58.650Z,42.61
2023-05-19T05:53:58.510Z,43.22
2023-05-19T05:54:59.416Z,41.81
2023-05-19T05:56:00.290Z,42.32
2023-05-19T05:57:01.236Z,41.41
2023-05-19T05:58:02.089Z,41.81
2023-05-19T05:59:02.948Z,41.31
2023-05-19T06:00:03.832Z,41.61
2023-05-19T06:01:04.712Z,41.69
2023-05-19T06:02:05.681Z,41.05
2023-05-19T06:03:06.793Z,40.83
2023-05-19T06:04:07.182Z,40.11
2023-05-19T06:05:08.110Z,39.32
2023-05-19T06:06:08.996Z,39.22
2023-05-19T06:07:09.835Z,41.31
2023-05-19T06:08:10.852Z,39.98
2023-05-19T06:09:11.780Z,41.39
2023-05-19T06:10:12.650Z,40.66
2023-05-19T06:11:13.610Z,41.35
2023-05-19T06:12:14.455Z,40.12
2023-05-19T06:13:15.474Z,40.16
2023-05-19T06:14:15.887Z,40.36
2023-05-19T06:15:16.774Z,40.78
2023-05-19T06:16:17.676Z,40.99
2023-05-19T06:17:18.614Z,41.47
2023-05-19T06:18:19.471Z,40.53
2023-05-19T06:19:20.411Z,40.22
2023-05-19T06:20:21.317Z,39.01
2023-05-19T06:21:22.362Z,39.92
2023-05-19T06:22:22.740Z,39.88
2023-05-19T06:23:23.646Z,38.28
2023-05-19T06:24:24.517Z,38.48
2023-05-19T06:25:25.401Z,38.90
2023-05-19T06:26:26.286Z,38.40
2023-05-19T06:27:27.155Z,38.83
2023-05-19T06:28:28.025Z,39.52
2023-05-19T06:29:28.917Z,39.82
2023-05-19T06:30:29.939Z,38.90
2023-05-19T06:31:30.385Z,38.09
2023-05-19T06:32:31.265Z,39.12
2023-05-19T06:33:32.132Z,38.71
2023-05-19T06:34:33.019Z,39.12
2023-05-19T06:35:33.919Z,39.12
2023-05-19T06:36:34.764Z,40.04
2023-05-19T06:37:35.629Z,39.84
2023-05-19T06:38:36.605Z,39.42
2023-05-19T06:39:37.473Z,39.84
2023-05-19T06:40:38.377Z,41.59
2023-05-19T06:41:39.224Z,40.62
2023-05-19T06:42:40.090Z,39.20
2023-05-19T06:43:40.966Z,38.70
2023-05-19T07:01:44.707Z,47.33
2023-05-19T07:02:45.205Z,44.92
2023-05-19T07:03:45.758Z,42.52
2023-05-19T07:04:46.181Z,41.99
2023-05-19T07:05:47.072Z,41.37
2023-05-19T07:06:47.994Z,41.59
2023-05-19T07:07:48.848Z,40.84
2023-05-19T07:08:49.778Z,40.79
2023-05-19T07:09:50.469Z,39.38
2023-05-19T07:10:51.359Z,38.68
2023-05-19T07:11:52.347Z,39.04
2023-05-19T07:12:53.488Z,38.64
2023-05-19T07:13:53.935Z,38.68
2023-05-19T07:14:54.887Z,39.76
2023-05-19T08:17:18.790Z,31.95
2023-05-19T08:18:19.763Z,31.54
2023-05-19T08:19:20.928Z,32.15
2023-05-19T08:20:22.387Z,31.35
2023-05-19T08:21:22.238Z,32.41
2023-05-19T08:22:23.133Z,33.51
2023-05-19T08:36:03.688Z,28.64
2023-05-19T08:40:30.905Z,29.54
2023-05-19T08:41:31.310Z,28.85
2023-05-19T08:42:32.217Z,29.51
2023-05-19T08:43:33.216Z,27.12
2023-05-19T08:44:34.100Z,27.81
2023-05-19T08:45:35.061Z,28.41
2023-05-19T08:46:35.829Z,28.05
2023-05-19T08:49:31.713Z,27.64
2023-05-19T08:50:32.705Z,28.22
2023-05-19T08:51:33.308Z,28.39
2023-05-19T08:52:34.138Z,27.88
2023-05-19T08:55:38.311Z,25.03
2023-05-19T08:56:39.311Z,26.04
2023-05-19T08:57:40.149Z,26.56
2023-05-19T08:58:41.050Z,26.75
2023-05-19T08:59:41.953Z,25.50
2023-05-19T09:00:42.820Z,26.33
2023-05-19T09:01:43.758Z,29.91
2023-05-19T09:02:55.056Z,30.93
2023-05-19T09:03:46.476Z,27.59
2023-05-19T09:04:46.208Z,28.25
2023-05-19T09:05:46.953Z,26.80
2023-05-19T09:06:47.515Z,26.89
2023-05-19T09:07:48.347Z,26.86
2023-05-19T09:08:49.223Z,26.25
2023-05-19T09:09:50.145Z,25.61
2023-05-19T09:10:50.997Z,26.09
2023-05-19T09:11:51.855Z,23.11
2023-05-19T09:12:52.747Z,23.73
2023-05-19T09:13:53.721Z,24.52
2023-05-19T09:14:54.165Z,25.93
2023-05-19T09:15:55.135Z,24.29
2023-05-19T09:16:55.979Z,25.16
2023-05-19T09:17:56.865Z,24.45
2023-05-19T09:18:57.790Z,26.03
2023-05-19T09:19:58.930Z,24.46
2023-05-19T09:20:59.472Z,25.25
2023-05-19T09:21:59.864Z,25.42
2023-05-19T09:23:00.684Z,25.61
2023-05-19T09:24:01.564Z,26.14
2023-05-19T09:25:02.505Z,26.21
2023-05-19T09:26:03.357Z,25.59
2023-05-19T09:27:04.223Z,25.29
2023-05-19T09:28:05.117Z,25.97
2023-05-19T09:29:06.021Z,25.05
2023-05-19T09:32:06.579Z,24.29
2023-05-19T09:33:07.073Z,25.49
2023-05-19T09:34:07.928Z,27.49
2023-05-19T09:35:08.863Z,26.86
2023-05-19T09:36:09.756Z,26.93
2023-05-19T09:37:10.748Z,27.23
2023-05-19T09:38:11.556Z,28.25
2023-05-19T09:39:12.529Z,27.41
2023-05-19T09:40:13.385Z,25.63
2023-05-19T09:41:14.242Z,28.08
2023-05-19T09:42:15.160Z,28.83
2023-05-19T09:43:16.057Z,29.60
2023-05-19T09:44:16.934Z,27.75
2023-05-19T09:47:18.481Z,25.97
2023-05-19T09:48:19.417Z,26.44
2023-05-19T09:49:20.247Z,26.69
2023-05-19T09:50:21.159Z,26.35
2023-05-19T09:51:22.107Z,25.82
2023-05-19T09:52:23.029Z,24.21
2023-05-19T09:53:23.902Z,24.74
2023-05-19T09:54:24.860Z,26.39
2023-05-19T09:55:25.719Z,27.54
2023-05-19T09:56:26.584Z,27.42
2023-05-19T09:57:27.470Z,27.66
2023-05-19T09:58:28.464Z,25.35
2023-05-19T09:59:32.493Z,25.65
2023-05-19T10:00:29.970Z,26.15
2023-05-19T10:04:55.233Z,32.63
2023-05-19T10:05:55.953Z,31.81
2023-05-19T10:06:56.561Z,27.80
2023-05-19T10:07:58.518Z,29.11
2023-05-19T10:08:58.372Z,28.29
2023-05-19T10:19:58.492Z,25.80
2023-05-19T10:20:59.987Z,26.87
2023-05-19T10:22:00.407Z,25.38
2023-05-19T10:23:01.355Z,25.59
2023-05-19T10:24:02.345Z,25.67
2023-05-19T10:27:10.215Z,22.74
2023-05-19T10:28:11.194Z,23.72
2023-05-19T10:29:12.054Z,23.92
2023-05-19T10:30:15.762Z,23.91
2023-05-19T10:33:19.025Z,24.62
2023-05-19T10:34:19.966Z,23.83
2023-05-19T10:35:20.892Z,24.68
2023-05-19T10:36:21.862Z,26.95
2023-05-19T10:42:14.354Z,32.12
2023-05-19T10:43:21.244Z,28.33
2023-05-19T10:44:13.601Z,27.44
2023-05-19T10:45:14.477Z,28.39
2023-05-19T10:46:15.364Z,26.75
2023-05-19T10:47:16.259Z,25.15
2023-05-19T10:48:17.317Z,27.48
2023-05-19T10:49:17.709Z,28.44
2023-05-19T10:50:18.576Z,30.66
2023-05-19T10:51:19.441Z,30.22
2023-05-19T10:52:20.317Z,31.37
2023-05-19T10:53:21.200Z,31.13
2023-05-19T10:54:22.073Z,30.38
2023-05-19T10:55:22.962Z,32.10
2023-05-19T10:56:23.808Z,32.32
2023-05-19T10:57:24.702Z,34.76
2023-05-19T10:58:25.547Z,35.44
2023-05-19T10:59:27.889Z,34.76
2023-05-19T11:00:26.912Z,34.86
2023-05-19T11:01:27.834Z,33.91
2023-05-19T11:02:28.697Z,32.02
2023-05-19T11:03:30.904Z,31.87
2023-05-19T11:04:30.381Z,33.03
2023-05-19T11:05:31.569Z,34.14
2023-05-19T11:06:32.120Z,33.18
2023-05-19T11:07:32.981Z,31.72
2023-05-19T11:08:33.835Z,30.05
2023-05-19T11:09:40.308Z,29.98
2023-05-19T11:10:36.498Z,29.07
2023-05-19T11:11:36.356Z,30.21
2023-05-19T11:12:37.245Z,32.33
2023-05-19T11:13:38.098Z,32.28
2023-05-19T11:14:38.964Z,33.12
2023-05-19T11:15:39.838Z,34.78
2023-05-19T11:16:40.774Z,35.08
2023-05-19T11:17:41.696Z,35.39
2023-05-19T11:18:42.569Z,36.41
2023-05-19T11:19:43.420Z,35.01
2023-05-19T11:20:44.311Z,36.48
2023-05-19T11:21:45.163Z,33.45
2023-05-19T11:22:46.048Z,31.40
2023-05-19T11:23:46.964Z,30.80
2023-05-19T11:24:47.835Z,30.49
2023-05-19T11:25:48.766Z,32.71
2023-05-19T11:26:49.610Z,31.55
2023-05-19T11:27:50.511Z,33.51
2023-05-19T11:28:51.370Z,34.83
2023-05-19T11:29:52.237Z,32.44
2023-05-19T11:30:53.103Z,31.90
2023-05-19T11:31:54.008Z,32.32
2023-05-19T11:32:54.918Z,28.10
2023-05-19T11:33:55.819Z,29.71
2023-05-19T11:34:56.679Z,29.46
2023-05-19T11:35:57.559Z,30.29
2023-05-19T11:36:58.429Z,32.04
2023-05-19T11:37:59.361Z,33.37
2023-05-19T11:39:00.196Z,34.59
2023-05-19T11:40:01.089Z,33.20
2023-05-19T11:41:01.970Z,33.88
2023-05-19T11:42:02.834Z,34.11
2023-05-19T11:43:03.741Z,34.00
2023-05-19T11:44:04.593Z,30.19
2023-05-19T11:45:05.448Z,27.83
2023-05-19T11:46:06.410Z,28.88
2023-05-19T11:47:07.289Z,27.59
2023-05-19T11:48:08.222Z,28.85
2023-05-19T11:49:09.091Z,29.27
2023-05-19T11:50:09.965Z,29.31
2023-05-19T11:51:10.864Z,30.98
2023-05-19T11:52:11.719Z,32.43
2023-05-19T11:53:12.689Z,32.84
2023-05-19T11:54:13.554Z,33.86
2023-05-19T11:55:14.433Z,31.93
2023-05-19T11:56:15.376Z,32.01
2023-05-19T11:57:16.212Z,32.57
2023-05-19T11:58:17.398Z,34.19
2023-05-19T11:59:18.083Z,34.42
2023-05-19T12:00:33.309Z,35.33
2023-05-19T12:01:19.259Z,34.29
2023-05-19T12:02:20.121Z,34.91
2023-05-19T12:03:20.844Z,35.89
2023-05-19T12:04:21.253Z,33.98
2023-05-19T12:05:22.265Z,32.69
2023-05-19T12:06:22.781Z,34.01
2023-05-19T12:07:23.338Z,34.99
2023-05-19T12:08:24.171Z,35.46
2023-05-19T12:09:25.061Z,32.44
2023-05-19T12:10:25.992Z,32.65
2023-05-19T12:11:26.901Z,33.26
2023-05-19T12:12:27.787Z,33.54
2023-05-19T12:13:28.696Z,34.14
2023-05-19T12:14:29.603Z,35.85
2023-05-19T12:15:30.437Z,35.46
2023-05-19T12:16:33.285Z,35.58
2023-05-19T12:17:31.896Z,36.76
2023-05-19T12:18:32.743Z,35.48
2023-05-19T12:19:33.605Z,34.29
2023-05-19T12:20:34.500Z,35.71
2023-05-19T12:21:35.363Z,36.52
2023-05-19T12:22:36.245Z,35.53
2023-05-19T12:23:37.141Z,36.23
2023-05-19T12:24:38.003Z,35.11
2023-05-19T12:25:38.887Z,36.61
2023-05-19T12:26:39.753Z,35.69
2023-05-19T12:27:40.628Z,35.86
2023-05-19T12:28:41.633Z,34.46
2023-05-19T12:29:42.525Z,35.35
2023-05-19T12:30:43.410Z,35.06
2023-05-19T12:31:44.337Z,33.54
2023-05-19T12:32:45.229Z,33.83
2023-05-19T12:33:46.143Z,34.43
2023-05-19T12:34:47.013Z,33.84
2023-05-19T12:35:47.912Z,34.34
2023-05-19T12:36:48.765Z,33.16
2023-05-19T12:37:49.625Z,34.76
2023-05-19T12:38:50.516Z,34.26
2023-05-19T12:39:51.404Z,34.63
2023-05-19T12:40:52.288Z,35.19
2023-05-19T12:41:53.173Z,34.11
2023-05-19T12:42:54.032Z,33.64
2023-05-19T12:43:55.019Z,34.76
2023-05-19T12:44:55.846Z,35.16
2023-05-19T12:45:56.849Z,35.63
2023-05-19T12:46:57.235Z,33.93
2023-05-19T12:47:58.140Z,33.94
2023-05-19T12:48:58.999Z,35.44
2023-05-19T12:49:59.890Z,33.33
2023-05-19T12:51:00.782Z,33.71
2023-05-19T12:52:02.886Z,34.39
2023-05-19T12:53:02.333Z,33.68
2023-05-19T12:54:03.261Z,33.86
2023-05-19T12:55:04.165Z,32.48
2023-05-19T12:56:05.075Z,32.58
2023-05-19T12:57:05.935Z,33.59
2023-05-19T12:58:06.948Z,34.09
2023-05-19T12:59:07.835Z,34.31
2023-05-19T13:00:08.820Z,32.71
2023-05-19T13:01:09.771Z,34.33
2023-05-19T13:02:10.957Z,35.33
2023-05-19T13:03:11.472Z,34.03
2023-05-19T13:04:12.422Z,32.73
2023-05-19T13:05:13.342Z,33.03
2023-05-19T13:06:14.204Z,33.62
2023-05-19T13:07:15.070Z,32.73
2023-05-19T13:08:15.951Z,34.76
2023-05-19T13:09:17.145Z,35.56
2023-05-19T13:10:17.473Z,34.58
2023-05-19T13:11:18.451Z,35.10
2023-05-19T13:12:18.905Z,36.60
2023-05-19T13:13:19.770Z,36.50
2023-05-19T13:14:20.682Z,35.89
2023-05-19T13:15:21.573Z,36.52
2023-05-19T13:16:22.545Z,35.55
2023-05-19T13:17:23.457Z,35.53
2023-05-19T13:18:24.373Z,35.13
2023-05-19T13:19:25.985Z,35.83
2023-05-19T13:24:24.968Z,34.49
2023-05-19T13:25:25.480Z,33.87
2023-05-19T13:26:25.866Z,35.36
2023-05-19T13:27:26.847Z,34.64
2023-05-19T13:31:47.044Z,32.71
2023-05-19T13:36:11.191Z,34.31
2023-05-19T13:37:11.158Z,33.67
2023-05-19T13:38:12.164Z,34.11
2023-05-19T13:39:12.552Z,34.59
2023-05-19T13:40:13.419Z,34.28
2023-05-19T13:41:15.954Z,35.28
2023-05-19T13:42:15.046Z,33.87
2023-05-19T13:43:16.011Z,33.47
2023-05-19T13:46:44.005Z,36.82
2023-05-19T13:49:20.918Z,33.91
2023-05-19T13:50:21.817Z,34.71
2023-05-19T13:51:22.800Z,34.69
2023-05-19T13:52:23.666Z,34.98
2023-05-19T13:53:24.508Z,33.98
2023-05-19T13:54:25.260Z,34.08
2023-05-19T13:55:25.918Z,33.78
2023-05-19T13:56:26.825Z,34.38
2023-05-19T13:57:27.733Z,34.49
2023-05-19T13:58:28.600Z,34.39
2023-05-19T13:59:29.464Z,32.89
2023-05-19T14:00:30.386Z,33.61
2023-05-19T14:01:31.475Z,34.41
2023-05-19T14:02:31.961Z,34.19
2023-05-19T14:22:50.186Z,32.06
2023-05-19T14:23:51.273Z,32.18
2023-05-19T14:24:51.771Z,32.09
2023-05-19T14:31:34.960Z,34.21
2023-05-19T14:32:35.497Z,33.83
2023-05-19T14:36:20.759Z,33.86
2023-05-19T14:41:28.711Z,33.07
2023-05-19T14:42:23.761Z,33.75
2023-05-19T14:43:24.699Z,32.93
2023-05-19T14:44:26.534Z,33.04
2023-05-19T14:45:26.647Z,33.72
2023-05-19T14:49:47.076Z,32.89
2023-05-19T14:50:47.910Z,34.28
2023-05-19T14:51:48.781Z,32.77
2023-05-19T14:52:49.660Z,33.31
2023-05-19T14:53:50.663Z,34.63
2023-05-19T14:54:52.677Z,33.62
2023-05-19T14:55:53.077Z,33.15
2023-05-19T14:56:53.034Z,34.16
2023-05-19T15:03:25.821Z,34.31
2023-05-19T15:11:26.091Z,33.64
2023-05-19T15:12:27.042Z,33.62
2023-05-19T15:13:28.038Z,33.42
2023-05-19T15:14:30.817Z,32.20
2023-05-19T15:15:30.536Z,31.99
2023-05-19T15:16:30.445Z,32.29
2023-05-19T15:17:31.305Z,31.68
2023-05-19T15:18:32.222Z,32.18
2023-05-19T15:19:33.128Z,32.47
2023-05-19T15:35:09.504Z,35.41
2023-05-19T15:36:10.616Z,35.83
2023-05-19T15:49:26.177Z,36.93
2023-05-19T15:58:59.941Z,36.43
2023-05-19T16:00:00.377Z,35.14
2023-05-19T16:06:56.488Z,36.57
2023-05-19T16:13:45.927Z,37.07
2023-05-19T16:14:46.938Z,37.07
2023-05-19T16:15:47.826Z,37.77
2023-05-19T16:16:48.947Z,38.28
2023-05-19T16:21:06.541Z,37.01
2023-05-19T16:22:07.411Z,37.51
2023-05-19T16:27:46.676Z,36.82
2023-05-19T16:28:47.625Z,36.64
2023-05-19T16:29:48.521Z,37.24
2023-05-19T16:30:49.992Z,37.65
2023-05-19T16:31:50.335Z,37.95
2023-05-19T16:34:50.950Z,37.34
2023-05-19T16:35:52.147Z,37.65
2023-05-19T16:36:52.539Z,38.15
2023-05-19T16:37:53.410Z,36.54
2023-05-19T16:38:54.306Z,37.45
2023-05-19T16:39:55.215Z,37.23
2023-05-19T16:40:56.135Z,37.12
2023-05-19T16:41:57.019Z,37.93
2023-05-19T16:54:09.772Z,35.31
2023-05-19T16:55:10.205Z,33.60
2023-05-19T16:56:11.043Z,34.11
2023-05-19T16:57:12.025Z,34.41
2023-05-19T16:58:12.861Z,34.91
2023-05-19T16:59:14.000Z,35.11
2023-05-19T17:00:14.390Z,34.91
2023-05-19T17:03:16.105Z,36.80
2023-05-19T17:04:16.693Z,36.10
2023-05-19T17:07:19.221Z,35.21
2023-05-19T17:08:20.058Z,35.80
2023-05-19T17:09:20.973Z,36.80
2023-05-19T17:10:21.847Z,35.60
2023-05-19T17:11:22.731Z,36.00
2023-05-19T17:12:23.363Z,36.10
2023-05-19T17:13:24.207Z,35.80
2023-05-19T17:14:25.132Z,35.61
2023-05-19T17:15:26.016Z,35.71
2023-05-19T17:16:26.937Z,36.22
2023-05-19T17:17:27.896Z,36.52
2023-05-19T17:18:28.772Z,37.81
2023-05-19T17:19:29.760Z,36.00
2023-05-19T17:20:30.236Z,36.02
2023-05-19T17:21:31.080Z,36.72
2023-05-19T17:22:31.964Z,36.92
2023-05-19T17:23:32.869Z,37.83